Time;durP1;ratioP1;P1;durP2;ratioP2;P2;SDS_P1;SDS_P2;PMS_P1;PMS_P2;Temp;Humidity;BMP_temperature;BMP_pressure;BME280_temperature;BME280_humidity;BME280_pressure;Samples;Min_cycle;Max_cycle;Signal;HPM_P1;HPM_P2
2021/03/22 00:00:11;;;;;;;6.38;0.98;;;3.20;69.20;;;;;;4912116;29;20814;-61
2021/03/22 00:02:37;;;;;;;6.65;0.70;;;3.20;69.80;;;;;;4911294;29;20043;-62
2021/03/22 00:05:04;;;;;;;3.83;0.80;;;3.20;69.60;;;;;;4910947;29;20046;-61
2021/03/22 00:07:30;;;;;;;3.08;0.82;;;3.20;70.30;;;;;;4910580;29;20031;-61
2021/03/22 00:09:55;;;;;;;4.05;0.90;;;3.10;70.10;;;;;;4910757;29;20039;-61
2021/03/22 00:12:21;;;;;;;3.15;0.93;;;3.10;70.40;;;;;;4910787;29;20172;-61
2021/03/22 00:14:46;;;;;;;3.05;1.15;;;3.10;70.60;;;;;;4910138;29;20040;-61
2021/03/22 00:17:13;;;;;;;3.67;1.10;;;3.10;70.50;;;;;;4910128;29;20044;-62
2021/03/22 00:19:38;;;;;;;3.35;0.95;;;3.00;70.70;;;;;;4911228;29;20035;-61
2021/03/22 00:22:04;;;;;;;4.78;1.02;;;3.00;70.80;;;;;;4909385;29;20845;-62
2021/03/22 00:24:30;;;;;;;2.65;0.60;;;2.90;71.10;;;;;;4912449;29;20761;-61
2021/03/22 00:26:56;;;;;;;2.88;1.10;;;3.00;71.00;;;;;;4909865;29;20051;-61
2021/03/22 00:29:21;;;;;;;1.48;0.73;;;3.00;71.20;;;;;;4912518;29;20020;-62
2021/03/22 00:31:47;;;;;;;2.63;0.88;;;2.90;71.40;;;;;;4924006;29;20111;-61
2021/03/22 00:34:12;;;;;;;4.53;0.82;;;2.90;71.50;;;;;;4912059;29;20547;-61
2021/03/22 00:36:38;;;;;;;4.80;1.00;;;2.90;71.30;;;;;;4908573;29;20036;-61
2021/03/22 00:39:04;;;;;;;2.80;0.80;;;2.90;71.40;;;;;;4910356;29;20040;-62
2021/03/22 00:41:30;;;;;;;1.98;0.90;;;2.90;71.40;;;;;;4910013;29;20032;-61
2021/03/22 00:43:55;;;;;;;3.08;0.63;;;2.90;71.80;;;;;;4908864;29;20040;-61
2021/03/22 00:46:21;;;;;;;2.50;0.95;;;2.90;71.90;;;;;;4909267;29;20472;-61
2021/03/22 00:48:49;;;;;;;5.80;0.93;;;2.90;71.80;;;;;;4909840;29;20043;-61
2021/03/22 00:51:14;;;;;;;2.58;0.93;;;2.90;72.00;;;;;;4896645;29;20051;-61
2021/03/22 00:53:41;;;;;;;2.13;1.00;;;2.90;71.60;;;;;;4910657;29;20043;-61
2021/03/22 00:56:06;;;;;;;3.90;0.70;;;3.00;71.10;;;;;;4910895;29;20667;-61
2021/03/22 00:58:32;;;;;;;5.95;0.95;;;3.00;71.90;;;;;;4911020;29;20427;-61
2021/03/22 01:00:59;;;;;;;3.10;0.93;;;3.00;72.30;;;;;;4891619;29;20051;-61
2021/03/22 01:03:31;;;;;;;3.28;1.00;;;3.00;72.20;;;;;;4912546;29;20114;-61
2021/03/22 01:05:59;;;;;;;3.55;0.90;;;3.00;72.20;;;;;;4910832;29;20036;-61
2021/03/22 01:08:27;;;;;;;2.75;0.73;;;3.00;72.60;;;;;;4914293;29;20031;-61
2021/03/22 01:10:59;;;;;;;2.67;0.82;;;3.00;73.00;;;;;;4911485;29;20031;-61
2021/03/22 01:13:36;;;;;;;2.25;0.93;;;3.00;73.00;;;;;;4911379;29;20032;-61
2021/03/22 01:16:04;;;;;;;1.90;1.00;;;3.00;73.10;;;;;;4908010;29;20135;-62
2021/03/22 01:18:33;;;;;;;3.03;0.82;;;3.00;73.70;;;;;;4910658;29;20095;-62
2021/03/22 01:21:08;;;;;;;2.55;0.80;;;3.00;74.20;;;;;;4907732;29;20051;-62
2021/03/22 01:23:34;;;;;;;1.63;0.70;;;3.00;73.80;;;;;;4910246;29;20050;-62
2021/03/22 01:26:00;;;;;;;2.58;0.70;;;3.00;73.50;;;;;;4907935;29;20040;-60
2021/03/22 01:28:26;;;;;;;2.78;0.70;;;2.90;73.60;;;;;;4910508;29;20040;-61
2021/03/22 01:30:59;;;;;;;1.77;0.70;;;2.90;74.30;;;;;;4907727;29;20039;-61
2021/03/22 01:33:28;;;;;;;1.48;0.80;;;2.90;74.60;;;;;;4907110;29;20034;-61
2021/03/22 01:35:58;;;;;;;3.08;1.10;;;2.90;74.20;;;;;;4907409;29;20583;-61
2021/03/22 01:38:24;;;;;;;3.45;0.65;;;2.90;74.50;;;;;;4907304;29;20086;-61
2021/03/22 01:41:05;;;;;;;5.85;1.13;;;2.90;74.60;;;;;;4907994;29;20032;-61
2021/03/22 01:43:43;;;;;;;3.65;0.70;;;2.80;75.20;;;;;;4906880;29;20044;-61
2021/03/22 01:46:09;;;;;;;4.25;0.90;;;2.80;75.90;;;;;;4908429;29;20044;-61
2021/03/22 01:48:35;;;;;;;3.20;0.85;;;2.80;75.80;;;;;;4891598;29;20040;-61
2021/03/22 01:51:01;;;;;;;3.88;1.20;;;2.80;75.60;;;;;;4890579;29;20036;-62
2021/03/22 01:53:26;;;;;;;3.00;1.00;;;2.80;75.50;;;;;;4908883;29;20127;-62
2021/03/22 01:56:09;;;;;;;3.80;1.25;;;2.80;75.60;;;;;;4890835;29;20048;-61
2021/03/22 01:58:34;;;;;;;4.60;0.95;;;2.80;76.00;;;;;;4908476;29;20035;-61
2021/03/22 02:01:00;;;;;;;4.13;0.90;;;2.80;75.70;;;;;;4909366;29;20035;-61
2021/03/22 02:03:25;;;;;;;6.15;1.20;;;2.80;75.70;;;;;;4891437;29;20039;-61
2021/03/22 02:05:51;;;;;;;5.70;1.33;;;2.80;75.70;;;;;;4889578;29;20044;-62
2021/03/22 02:08:40;;;;;;;5.57;1.30;;;2.80;75.70;;;;;;4904898;29;20028;-61
2021/03/22 02:11:23;;;;;;;4.45;1.10;;;2.90;76.40;;;;;;4908240;29;20035;-62
2021/03/22 02:13:51;;;;;;;3.85;1.27;;;2.90;76.70;;;;;;4904799;29;20028;-61
2021/03/22 02:16:40;;;;;;;2.28;0.80;;;2.90;77.20;;;;;;4910045;29;20028;-61
2021/03/22 02:19:17;;;;;;;4.72;1.00;;;2.90;76.80;;;;;;4906752;29;20043;-61
2021/03/22 02:22:20;;;;;;;3.30;1.45;;;2.90;77.00;;;;;;4907163;29;20123;-62
2021/03/22 02:24:46;;;;;;;3.30;1.00;;;2.90;77.10;;;;;;4919349;28;20039;-61
2021/03/22 02:27:42;;;;;;;6.93;0.75;;;2.90;77.10;;;;;;4905772;29;20046;-63
2021/03/22 02:30:24;;;;;;;5.78;1.08;;;2.90;77.20;;;;;;4907976;29;20055;-61
2021/03/22 02:33:16;;;;;;;5.53;1.27;;;2.80;77.20;;;;;;4903640;29;20058;-61
2021/03/22 02:35:51;;;;;;;4.40;1.08;;;2.90;77.40;;;;;;4905439;29;20091;-61
2021/03/22 02:38:27;;;;;;;3.65;1.10;;;2.90;77.50;;;;;;4907319;29;20028;-61
2021/03/22 02:41:02;;;;;;;5.20;1.30;;;2.90;77.20;;;;;;4907218;29;20032;-61
2021/03/22 02:43:33;;;;;;;4.53;1.00;;;2.90;77.50;;;;;;4907581;29;20040;-62
2021/03/22 02:45:59;;;;;;;5.90;1.48;;;2.90;77.40;;;;;;4905969;29;20051;-62
2021/03/22 02:48:28;;;;;;;4.50;1.27;;;2.90;77.50;;;;;;4907660;29;20032;-61
2021/03/22 02:51:20;;;;;;;3.95;1.13;;;2.90;77.80;;;;;;4903913;29;20622;-61
2021/03/22 02:54:03;;;;;;;5.43;1.33;;;2.90;78.10;;;;;;4903972;29;20040;-61
2021/03/22 02:56:41;;;;;;;4.13;1.10;;;2.80;78.40;;;;;;4904875;29;20032;-62
2021/03/22 02:59:19;;;;;;;6.55;1.60;;;2.80;78.60;;;;;;4905650;29;20044;-61
2021/03/22 03:01:58;;;;;;;5.78;1.25;;;2.80;78.80;;;;;;4907884;29;20651;-62
2021/03/22 03:04:24;;;;;;;6.10;1.42;;;2.80;79.10;;;;;;4908430;29;20475;-61
2021/03/22 03:06:57;;;;;;;8.25;1.48;;;2.80;79.20;;;;;;4907738;29;20075;-61
2021/03/22 03:09:26;;;;;;;9.38;1.83;;;2.80;79.60;;;;;;4911248;29;20040;-61
2021/03/22 03:11:52;;;;;;;7.88;1.58;;;2.80;79.80;;;;;;4907453;29;20027;-61
2021/03/22 03:14:19;;;;;;;10.18;1.80;;;2.90;80.10;;;;;;4912846;29;20059;-62
2021/03/22 03:16:45;;;;;;;9.15;2.13;;;2.90;80.30;;;;;;4910812;29;20036;-61
2021/03/22 03:19:11;;;;;;;12.40;2.58;;;3.00;80.20;;;;;;4910770;29;20956;-60
2021/03/22 03:21:37;;;;;;;12.70;1.85;;;3.00;80.20;;;;;;4910123;29;20146;-61
2021/03/22 03:24:09;;;;;;;10.38;2.78;;;3.10;80.20;;;;;;4925651;28;20042;-61
2021/03/22 03:26:36;;;;;;;7.20;1.95;;;3.10;80.50;;;;;;4910091;29;20103;-67
2021/03/22 03:29:06;;;;;;;9.77;1.80;;;3.10;80.60;;;;;;4911056;29;20040;-67
2021/03/22 03:31:34;;;;;;;12.45;2.42;;;3.10;80.80;;;;;;4910900;29;20035;-67
2021/03/22 03:34:00;;;;;;;13.38;2.15;;;3.10;81.10;;;;;;4898816;29;20044;-67
2021/03/22 03:36:26;;;;;;;8.02;2.90;;;3.20;81.30;;;;;;4911160;29;20344;-67
2021/03/22 03:38:52;;;;;;;10.18;1.98;;;3.10;81.10;;;;;;4925202;29;20063;-67
2021/03/22 03:41:18;;;;;;;14.80;1.90;;;3.10;81.20;;;;;;4911807;29;20127;-67
2021/03/22 03:43:43;;;;;;;12.75;2.17;;;3.10;82.00;;;;;;4892001;29;20046;-68
2021/03/22 03:46:09;;;;;;;9.07;2.30;;;3.10;81.40;;;;;;4911732;29;20047;-67
2021/03/22 03:48:35;;;;;;;14.45;2.03;;;3.10;82.30;;;;;;4912565;29;20038;-67
2021/03/22 03:51:02;;;;;;;11.38;1.92;;;3.10;81.50;;;;;;4911812;29;20039;-67
2021/03/22 03:53:29;;;;;;;10.80;2.40;;;3.10;81.60;;;;;;4911537;29;20139;-62
2021/03/22 03:55:56;;;;;;;8.27;2.00;;;3.20;81.80;;;;;;4911508;29;20043;-62
2021/03/22 03:58:23;;;;;;;13.27;2.33;;;3.20;81.80;;;;;;4913504;29;20043;-62
2021/03/22 04:00:49;;;;;;;11.40;2.17;;;3.30;81.80;;;;;;4902935;29;20819;-61
2021/03/22 04:03:31;;;;;;;18.77;3.15;;;3.30;81.70;;;;;;4913639;29;20044;-68
2021/03/22 04:06:22;;;;;;;18.50;3.03;;;3.40;82.00;;;;;;4923085;29;20502;-61
2021/03/22 04:08:57;;;;;;;21.15;3.60;;;3.50;81.80;;;;;;4888456;29;20120;-61
2021/03/22 04:11:31;;;;;;;20.02;2.70;;;3.50;82.00;;;;;;4909589;29;20032;-61
2021/03/22 04:13:58;;;;;;;17.38;2.95;;;3.60;81.70;;;;;;4916204;29;20029;-61
2021/03/22 04:16:26;;;;;;;17.05;2.13;;;3.60;82.10;;;;;;4915174;29;20403;-61
2021/03/22 04:18:52;;;;;;;14.82;2.72;;;3.60;81.90;;;;;;4892994;29;20060;-61
2021/03/22 04:21:21;;;;;;;17.58;2.85;;;3.60;82.00;;;;;;4913641;29;20480;-61
2021/03/22 04:23:48;;;;;;;19.40;3.05;;;3.60;81.70;;;;;;4911171;29;20050;-61
2021/03/22 04:26:15;;;;;;;15.48;2.72;;;3.60;82.10;;;;;;4912954;29;20050;-61
2021/03/22 04:28:42;;;;;;;17.27;4.25;;;3.60;81.90;;;;;;4913695;29;20719;-61
2021/03/22 04:31:09;;;;;;;20.15;3.58;;;3.70;82.00;;;;;;4916294;29;20035;-61
2021/03/22 04:33:35;;;;;;;18.25;2.80;;;3.70;83.00;;;;;;4913978;29;20032;-61
2021/03/22 04:36:02;;;;;;;15.32;2.85;;;3.70;83.10;;;;;;4928128;29;20385;-61
2021/03/22 04:38:28;;;;;;;12.80;2.65;;;3.70;83.20;;;;;;4911237;29;20083;-61
2021/03/22 04:40:54;;;;;;;19.52;2.70;;;3.60;82.80;;;;;;4917399;29;20043;-61
2021/03/22 04:43:20;;;;;;;20.77;3.28;;;3.70;82.80;;;;;;4928499;29;20040;-61
2021/03/22 04:45:46;;;;;;;25.30;4.40;;;3.70;83.00;;;;;;4914658;29;20036;-67
2021/03/22 04:48:13;;;;;;;21.30;4.40;;;3.80;83.00;;;;;;4912843;29;20151;-66
2021/03/22 04:50:38;;;;;;;25.75;4.07;;;3.80;82.80;;;;;;4916174;29;20054;-67
2021/03/22 04:53:04;;;;;;;15.32;3.20;;;3.80;82.80;;;;;;4911295;29;20803;-67
2021/03/22 04:55:30;;;;;;;17.02;3.55;;;3.80;83.00;;;;;;4918182;29;20766;-66
2021/03/22 04:57:56;;;;;;;20.90;4.53;;;3.80;82.80;;;;;;4915913;29;20040;-66
2021/03/22 05:00:27;;;;;;;22.52;3.60;;;3.90;83.60;;;;;;4917264;29;20043;-66
2021/03/22 05:02:54;;;;;;;15.80;4.40;;;3.80;82.90;;;;;;4925964;29;20146;-66
2021/03/22 05:05:21;;;;;;;15.25;2.97;;;3.90;83.00;;;;;;4914352;29;20039;-66
2021/03/22 05:07:47;;;;;;;16.33;3.20;;;3.80;82.90;;;;;;4909431;29;20141;-66
2021/03/22 05:10:20;;;;;;;16.13;4.38;;;3.80;82.80;;;;;;4913024;29;20070;-66
2021/03/22 05:12:46;;;;;;;22.30;4.47;;;3.80;83.10;;;;;;4909116;29;20036;-66
2021/03/22 05:15:12;;;;;;;11.75;2.88;;;3.80;83.00;;;;;;4914921;29;20046;-66
2021/03/22 05:17:37;;;;;;;14.35;4.07;;;3.80;83.00;;;;;;4913922;29;20039;-66
2021/03/22 05:20:06;;;;;;;14.85;3.42;;;3.80;83.10;;;;;;4911010;29;20047;-66
2021/03/22 05:22:32;;;;;;;17.13;2.65;;;3.90;83.00;;;;;;4916243;29;20327;-61
2021/03/22 05:24:58;;;;;;;20.48;3.30;;;3.90;83.10;;;;;;4912088;29;20036;-61
2021/03/22 05:27:23;;;;;;;18.92;3.30;;;3.90;83.00;;;;;;4912134;29;20030;-61
2021/03/22 05:29:49;;;;;;;18.45;3.70;;;4.00;83.10;;;;;;4892674;29;20119;-61
2021/03/22 05:32:33;;;;;;;16.00;3.65;;;4.00;82.70;;;;;;4911710;29;20032;-61
2021/03/22 05:34:59;;;;;;;18.33;3.70;;;3.90;82.70;;;;;;4913164;29;20114;-61
2021/03/22 05:37:26;;;;;;;14.57;2.60;;;3.90;82.70;;;;;;4907991;29;20040;-61
2021/03/22 05:39:52;;;;;;;16.85;3.85;;;3.90;83.00;;;;;;4913974;29;20042;-61
2021/03/22 05:42:43;;;;;;;20.30;4.05;;;3.90;82.80;;;;;;4915424;29;20040;-61
2021/03/22 05:45:36;;;;;;;16.20;3.80;;;3.90;83.00;;;;;;4912106;29;20502;-61
2021/03/22 05:48:29;;;;;;;16.85;3.00;;;4.00;83.00;;;;;;4914665;29;21144;-61
2021/03/22 05:51:13;;;;;;;17.25;2.80;;;4.00;83.00;;;;;;4905513;29;20028;-61
2021/03/22 05:53:54;;;;;;;17.52;2.35;;;4.10;83.00;;;;;;4908973;29;20039;-61
2021/03/22 05:56:54;;;;;;;19.23;3.67;;;4.10;83.00;;;;;;4909278;29;20035;-66
2021/03/22 05:59:38;;;;;;;19.10;3.25;;;4.20;82.80;;;;;;4923544;29;20980;-66
2021/03/22 06:02:29;;;;;;;22.75;3.35;;;4.30;82.70;;;;;;4910636;29;20036;-66
2021/03/22 06:04:58;;;;;;;21.85;3.00;;;4.40;82.10;;;;;;4909716;29;20032;-67
2021/03/22 06:07:25;;;;;;;24.05;3.70;;;4.50;81.70;;;;;;4910039;29;20043;-67
2021/03/22 06:10:14;;;;;;;18.52;3.40;;;4.70;81.30;;;;;;4914394;29;20847;-66
2021/03/22 06:12:43;;;;;;;27.70;3.47;;;4.80;80.80;;;;;;4911111;29;20070;-61
2021/03/22 06:15:24;;;;;;;17.27;2.88;;;4.80;80.60;;;;;;4909425;29;20071;-61
2021/03/22 06:17:59;;;;;;;22.45;3.72;;;4.90;80.70;;;;;;4905820;29;20282;-66
2021/03/22 06:20:34;;;;;;;21.15;3.08;;;5.10;79.70;;;;;;4914462;29;20046;-66
2021/03/22 06:23:17;;;;;;;34.10;3.65;;;5.10;79.50;;;;;;4911882;29;20063;-66
2021/03/22 06:25:43;;;;;;;22.20;3.67;;;5.20;78.70;;;;;;4910851;29;20043;-66
2021/03/22 06:28:14;;;;;;;12.10;2.63;;;5.30;78.60;;;;;;4917210;29;20635;-69
2021/03/22 06:31:06;;;;;;;21.98;5.95;;;5.30;78.10;;;;;;4921153;29;20664;-68
2021/03/22 06:33:37;;;;;;;28.27;6.90;;;5.30;77.70;;;;;;4910609;29;20059;-68
2021/03/22 06:36:04;;;;;;;18.60;3.22;;;5.30;77.80;;;;;;4908466;29;20043;-68
2021/03/22 06:38:30;;;;;;;27.20;4.07;;;5.40;77.40;;;;;;4912383;29;20043;-67
2021/03/22 06:40:56;;;;;;;14.55;3.60;;;5.40;77.00;;;;;;4916468;29;20036;-67
2021/03/22 06:43:24;;;;;;;21.15;3.25;;;5.40;77.20;;;;;;4916476;29;20051;-69
2021/03/22 06:45:54;;;;;;;18.40;3.60;;;5.40;77.50;;;;;;4911726;29;20108;-65
2021/03/22 06:48:29;;;;;;;19.38;4.45;;;5.50;77.30;;;;;;4914471;29;20038;-65
2021/03/22 06:51:04;;;;;;;24.48;3.30;;;5.60;76.20;;;;;;4919122;29;20903;-65
2021/03/22 06:53:35;;;;;;;22.88;3.85;;;5.70;76.70;;;;;;4906686;29;20504;-62
2021/03/22 06:56:14;;;;;;;24.42;3.88;;;5.70;77.10;;;;;;4910088;29;20063;-68
2021/03/22 06:58:42;;;;;;;13.68;3.58;;;5.80;76.80;;;;;;4912666;29;20048;-67
2021/03/22 07:01:24;;;;;;;16.38;3.67;;;5.90;76.50;;;;;;4913612;29;20035;-65
2021/03/22 07:03:51;;;;;;;24.33;6.03;;;6.20;75.90;;;;;;4908431;29;20107;-67
2021/03/22 07:06:20;;;;;;;16.15;3.75;;;6.40;74.80;;;;;;4915832;29;20036;-68
2021/03/22 07:08:46;;;;;;;24.23;4.00;;;6.60;74.10;;;;;;4915374;29;20146;-67
2021/03/22 07:11:14;;;;;;;17.08;3.42;;;6.90;73.30;;;;;;4909322;29;20043;-67
2021/03/22 07:13:51;;;;;;;15.68;3.40;;;7.20;71.70;;;;;;4914651;29;20048;-60
2021/03/22 07:16:23;;;;;;;14.77;2.83;;;7.50;69.70;;;;;;4912931;29;20090;-64
2021/03/22 07:19:17;;;;;;;22.35;4.25;;;7.90;69.00;;;;;;4909530;29;20054;-64
2021/03/22 07:22:10;;;;;;;18.73;3.50;;;8.20;67.70;;;;;;4914135;29;20062;-67
2021/03/22 07:24:53;;;;;;;18.00;3.78;;;8.20;66.90;;;;;;4908379;29;20665;-66
2021/03/22 07:27:25;;;;;;;15.15;3.30;;;8.30;67.00;;;;;;4912990;29;20040;-68
2021/03/22 07:30:35;;;;;;;18.50;3.17;;;8.40;66.00;;;;;;4911363;29;20718;-66
2021/03/22 07:33:30;;;;;;;14.23;3.15;;;8.50;66.10;;;;;;4865408;29;20639;-66
2021/03/22 07:36:02;;;;;;;12.15;2.92;;;8.60;66.20;;;;;;4912973;29;20074;-66
2021/03/22 07:38:40;;;;;;;15.95;2.92;;;8.70;65.20;;;;;;4911524;29;20039;-66
2021/03/22 07:41:33;;;;;;;21.70;4.88;;;8.90;65.20;;;;;;4912355;29;20128;-67
2021/03/22 07:44:24;;;;;;;18.98;3.40;;;9.10;63.70;;;;;;4913081;29;20055;-67
2021/03/22 07:47:38;;;;;;;17.77;4.00;;;9.10;63.20;;;;;;4916783;29;20070;-67
2021/03/22 07:50:31;;;;;;;25.23;4.45;;;9.00;63.10;;;;;;4908628;29;20706;-67
2021/03/22 07:53:15;;;;;;;12.50;3.40;;;8.90;64.20;;;;;;4905588;29;20067;-62
2021/03/22 07:55:55;;;;;;;21.52;4.15;;;9.00;63.80;;;;;;4909799;29;20064;-62
2021/03/22 07:58:44;;;;;;;17.65;4.90;;;9.40;62.70;;;;;;4912263;29;20036;-61
2021/03/22 08:01:40;;;;;;;13.10;3.40;;;9.90;63.50;;;;;;4913312;29;20034;-62
2021/03/22 08:04:33;;;;;;;16.42;2.97;;;11.10;58.40;;;;;;4918867;29;20052;-62
2021/03/22 08:07:36;;;;;;;15.73;5.18;;;11.60;56.30;;;;;;4907836;29;20071;-62
2021/03/22 08:10:35;;;;;;;14.68;4.82;;;11.70;55.40;;;;;;4912578;29;20076;-62
2021/03/22 08:13:15;;;;;;;12.85;3.35;;;11.70;55.90;;;;;;4928581;29;20039;-67
2021/03/22 08:16:05;;;;;;;20.27;3.83;;;11.90;54.40;;;;;;4910419;29;20135;-67
2021/03/22 08:18:51;;;;;;;14.90;3.17;;;12.30;54.70;;;;;;4914931;29;20039;-68
2021/03/22 08:21:38;;;;;;;13.73;3.42;;;12.80;53.70;;;;;;4916716;29;20040;-63
2021/03/22 08:24:32;;;;;;;14.07;3.83;;;13.50;51.80;;;;;;4932609;28;20059;-62
2021/03/22 08:27:17;;;;;;;15.75;3.13;;;13.80;49.40;;;;;;4912284;29;20047;-63
2021/03/22 08:30:16;;;;;;;15.82;3.53;;;14.00;49.50;;;;;;4917257;29;20067;-60
2021/03/22 08:32:54;;;;;;;18.73;3.25;;;13.80;50.50;;;;;;4914702;29;20090;-63
2021/03/22 08:35:44;;;;;;;12.73;3.67;;;13.80;49.10;;;;;;4908879;29;20047;-60
2021/03/22 08:38:15;;;;;;;12.38;3.45;;;13.60;50.30;;;;;;4911908;29;20855;-63
2021/03/22 08:40:50;;;;;;;15.20;3.33;;;13.50;49.60;;;;;;4932291;29;20036;-61
2021/03/22 08:43:25;;;;;;;14.05;4.15;;;13.30;49.30;;;;;;4917303;29;20032;-62
2021/03/22 08:46:06;;;;;;;15.68;3.35;;;13.10;49.60;;;;;;4906617;29;20044;-66
2021/03/22 08:48:32;;;;;;;13.55;3.20;;;12.90;49.80;;;;;;4912117;29;20087;-62
2021/03/22 08:51:06;;;;;;;10.82;3.13;;;12.60;50.90;;;;;;4913976;29;20055;-67
2021/03/22 08:53:41;;;;;;;17.33;3.22;;;12.20;50.90;;;;;;4912225;29;20032;-67
2021/03/22 08:56:26;;;;;;;9.70;2.95;;;11.80;51.10;;;;;;4912460;29;20036;-67
2021/03/22 08:58:56;;;;;;;16.85;3.20;;;11.90;52.50;;;;;;4912899;29;20044;-67
2021/03/22 09:01:24;;;;;;;15.73;3.22;;;12.30;51.30;;;;;;4898699;29;20075;-67
2021/03/22 09:03:51;;;;;;;16.17;2.70;;;12.80;51.00;;;;;;4916760;29;20039;-67
2021/03/22 09:06:23;;;;;;;12.45;2.92;;;13.10;50.00;;;;;;4912589;29;20811;-67
2021/03/22 09:08:53;;;;;;;13.98;2.78;;;13.20;49.70;;;;;;4914523;29;20684;-67
2021/03/22 09:11:25;;;;;;;12.23;2.67;;;13.20;48.90;;;;;;4912339;29;20082;-68
2021/03/22 09:14:05;;;;;;;9.95;2.30;;;13.50;47.10;;;;;;4909059;29;20043;-66
2021/03/22 09:16:36;;;;;;;11.90;2.72;;;14.10;43.40;;;;;;4913347;29;20043;-66
2021/03/22 09:19:11;;;;;;;8.45;2.35;;;14.40;44.10;;;;;;4909601;29;20333;-66
2021/03/22 09:21:39;;;;;;;14.57;3.43;;;14.90;43.40;;;;;;4910480;29;20054;-67
2021/03/22 09:24:36;;;;;;;13.63;2.63;;;15.40;42.90;;;;;;4909365;29;20723;-66
2021/03/22 09:27:03;;;;;;;9.15;2.85;;;15.70;44.20;;;;;;4914729;29;20046;-60
2021/03/22 09:29:37;;;;;;;9.20;2.28;;;15.70;42.20;;;;;;4912390;29;20044;-60
2021/03/22 09:32:23;;;;;;;11.13;2.72;;;15.30;41.40;;;;;;4912536;29;20126;-60
2021/03/22 09:34:50;;;;;;;9.48;2.63;;;14.80;42.40;;;;;;4904380;29;20214;-61
2021/03/22 09:37:48;;;;;;;10.45;2.72;;;14.40;44.00;;;;;;4911784;29;20040;-60
2021/03/22 09:40:19;;;;;;;9.82;2.28;;;14.30;43.90;;;;;;4908197;29;20063;-60
2021/03/22 09:43:04;;;;;;;14.15;3.47;;;14.00;43.90;;;;;;4914381;29;20473;-59
2021/03/22 09:45:50;;;;;;;11.73;2.75;;;13.40;44.60;;;;;;4913740;29;20408;-60
2021/03/22 09:48:16;;;;;;;14.05;3.03;;;13.20;45.80;;;;;;4912448;29;20031;-60
2021/03/22 09:50:48;;;;;;;9.65;2.30;;;13.40;45.90;;;;;;4911739;29;20844;-60
2021/03/22 09:53:34;;;;;;;12.70;2.58;;;13.80;47.70;;;;;;4897944;29;20044;-60
2021/03/22 09:56:07;;;;;;;6.90;2.40;;;14.50;44.50;;;;;;4928999;29;20039;-60
2021/03/22 09:58:46;;;;;;;10.20;3.10;;;14.80;43.70;;;;;;4909442;29;20095;-60
2021/03/22 10:01:14;;;;;;;9.80;2.67;;;14.30;43.40;;;;;;4911579;29;20123;-60
2021/03/22 10:03:47;;;;;;;10.90;2.17;;;13.70;45.20;;;;;;4918320;29;20036;-60
2021/03/22 10:06:40;;;;;;;11.18;2.53;;;13.40;46.00;;;;;;4909228;29;20039;-60
2021/03/22 10:09:20;;;;;;;10.75;2.55;;;13.70;46.00;;;;;;4916824;29;20373;-60
2021/03/22 10:11:48;;;;;;;10.45;2.70;;;14.30;44.60;;;;;;4910604;29;20040;-60
2021/03/22 10:14:30;;;;;;;10.70;2.22;;;14.80;44.30;;;;;;4910628;29;20032;-60
2021/03/22 10:16:57;;;;;;;11.48;2.55;;;14.80;42.10;;;;;;4908083;29;20040;-60
2021/03/22 10:19:27;;;;;;;12.00;2.38;;;14.50;42.20;;;;;;4911844;29;20146;-60
2021/03/22 10:21:58;;;;;;;6.25;2.38;;;14.20;43.70;;;;;;4892894;29;20041;-61
2021/03/22 10:24:42;;;;;;;15.93;3.00;;;13.80;41.80;;;;;;4918152;29;20050;-61
2021/03/22 10:27:25;;;;;;;10.68;3.17;;;13.50;45.40;;;;;;4906424;29;20047;-61
2021/03/22 10:30:11;;;;;;;12.70;2.78;;;13.10;48.30;;;;;;4909470;29;20040;-67
2021/03/22 10:32:42;;;;;;;8.90;2.22;;;12.70;47.50;;;;;;4910382;29;20138;-61
2021/03/22 10:35:14;;;;;;;13.05;2.10;;;12.50;47.70;;;;;;4911125;29;20797;-67
2021/03/22 10:37:44;;;;;;;10.00;2.55;;;12.50;47.90;;;;;;4916207;29;20035;-66
2021/03/22 10:40:35;;;;;;;11.60;2.92;;;12.30;48.50;;;;;;4916575;29;20040;-66
2021/03/22 10:43:03;;;;;;;11.82;2.38;;;12.10;49.90;;;;;;4918125;29;20059;-60
2021/03/22 10:45:42;;;;;;;10.40;2.17;;;11.90;47.90;;;;;;4905315;29;20631;-60
2021/03/22 10:48:26;;;;;;;9.10;2.17;;;11.80;49.10;;;;;;4911051;29;20067;-60
2021/03/22 10:51:02;;;;;;;6.85;2.28;;;11.70;48.00;;;;;;4911080;29;20139;-61
2021/03/22 10:53:28;;;;;;;3.58;1.42;;;11.70;48.40;;;;;;4911414;29;20047;-59
2021/03/22 10:55:54;;;;;;;8.32;2.33;;;11.60;47.50;;;;;;4906940;29;20035;-61
2021/03/22 10:58:32;;;;;;;5.03;1.85;;;11.60;48.90;;;;;;4911787;29;20895;-60
2021/03/22 11:01:07;;;;;;;7.50;1.83;;;11.40;49.60;;;;;;4877156;29;20044;-63
2021/03/22 11:03:34;;;;;;;4.18;1.70;;;11.40;47.90;;;;;;4911259;29;20858;-60
2021/03/22 11:06:08;;;;;;;6.95;1.60;;;11.40;43.40;;;;;;4907413;29;20036;-60
2021/03/22 11:08:38;;;;;;;6.18;1.40;;;11.30;44.80;;;;;;4910911;29;20127;-60
2021/03/22 11:11:13;;;;;;;6.00;1.40;;;11.20;44.70;;;;;;4911045;29;20852;-61
2021/03/22 11:13:44;;;;;;;6.70;1.63;;;11.30;45.60;;;;;;4913433;29;20084;-60
2021/03/22 11:16:19;;;;;;;7.80;1.58;;;11.40;44.30;;;;;;4910584;29;20493;-62
2021/03/22 11:18:45;;;;;;;5.75;2.05;;;11.50;44.00;;;;;;4913128;29;20040;-60
2021/03/22 11:21:11;;;;;;;7.68;1.83;;;11.50;46.80;;;;;;4910085;29;20484;-66
2021/03/22 11:23:42;;;;;;;4.10;1.50;;;11.40;45.10;;;;;;4908083;29;20118;-65
2021/03/22 11:26:25;;;;;;;4.53;1.55;;;11.30;42.90;;;;;;4910277;29;20507;-65
2021/03/22 11:28:51;;;;;;;7.22;1.85;;;11.30;44.00;;;;;;4911681;29;20037;-64
2021/03/22 11:31:26;;;;;;;6.53;1.85;;;11.40;47.00;;;;;;4914722;29;20043;-65
2021/03/22 11:34:05;;;;;;;7.28;1.52;;;11.30;44.90;;;;;;4906942;29;20056;-65
2021/03/22 11:36:44;;;;;;;5.30;1.63;;;11.50;49.20;;;;;;4916475;29;20050;-60
2021/03/22 11:39:12;;;;;;;4.32;1.60;;;11.50;44.90;;;;;;4914647;29;20055;-61
2021/03/22 11:42:03;;;;;;;3.55;1.20;;;11.60;46.10;;;;;;4910556;29;20082;-60
2021/03/22 11:44:33;;;;;;;8.48;1.60;;;11.70;44.50;;;;;;4914878;29;20151;-66
2021/03/22 11:47:33;;;;;;;4.32;1.20;;;11.80;44.20;;;;;;4930067;29;20056;-65
2021/03/22 11:49:58;;;;;;;3.90;1.70;;;11.90;44.50;;;;;;4912270;29;20556;-65
2021/03/22 11:52:28;;;;;;;6.95;1.80;;;12.00;43.60;;;;;;4919130;29;20063;-65
2021/03/22 11:55:04;;;;;;;4.43;1.38;;;12.00;45.40;;;;;;4909224;29;20040;-65
2021/03/22 11:57:50;;;;;;;7.20;2.20;;;11.90;43.60;;;;;;4917296;29;20039;-65
2021/03/22 12:00:26;;;;;;;4.97;1.58;;;11.80;44.10;;;;;;4918184;29;20051;-65
2021/03/22 12:03:02;;;;;;;6.10;1.77;;;11.80;46.30;;;;;;4915389;29;20043;-65
2021/03/22 12:05:37;;;;;;;5.25;1.90;;;11.90;44.60;;;;;;4916744;29;20039;-65
2021/03/22 12:08:33;;;;;;;6.40;1.47;;;12.10;44.20;;;;;;4919084;29;20045;-60
2021/03/22 12:11:01;;;;;;;6.40;1.50;;;12.30;42.80;;;;;;4917317;29;20127;-64
2021/03/22 12:13:27;;;;;;;7.60;1.67;;;12.30;44.60;;;;;;4910263;29;20032;-64
2021/03/22 12:15:53;;;;;;;3.17;1.30;;;12.30;43.20;;;;;;4896924;29;20091;-66
2021/03/22 12:18:32;;;;;;;3.60;1.25;;;12.30;42.60;;;;;;4919999;29;20051;-60
2021/03/22 12:20:59;;;;;;;7.93;1.83;;;12.20;41.50;;;;;;4911987;29;20132;-60
2021/03/22 12:23:25;;;;;;;8.57;1.50;;;12.20;42.30;;;;;;4909254;29;20301;-61
2021/03/22 12:25:51;;;;;;;8.13;1.38;;;12.30;42.30;;;;;;4928160;29;20064;-60
2021/03/22 12:28:17;;;;;;;3.85;1.40;;;12.30;41.80;;;;;;4920862;29;20043;-60
2021/03/22 12:30:43;;;;;;;3.38;1.40;;;12.50;40.80;;;;;;4914512;29;20063;-60
2021/03/22 12:33:28;;;;;;;4.47;1.27;;;12.50;41.80;;;;;;4915212;29;20159;-60
2021/03/22 12:35:55;;;;;;;3.50;1.00;;;12.50;39.50;;;;;;4914452;29;20044;-60
2021/03/22 12:38:21;;;;;;;5.72;1.30;;;12.40;38.60;;;;;;4908818;29;20404;-65
2021/03/22 12:40:47;;;;;;;6.95;1.70;;;12.40;40.80;;;;;;4928001;29;20035;-65
2021/03/22 12:43:23;;;;;;;4.45;1.30;;;12.30;42.80;;;;;;4913809;29;20123;-65
2021/03/22 12:45:48;;;;;;;5.75;1.70;;;12.20;41.90;;;;;;4914188;29;20050;-66
2021/03/22 12:48:14;;;;;;;3.10;1.10;;;12.20;41.10;;;;;;4912765;29;20044;-64
2021/03/22 12:50:41;;;;;;;3.45;1.40;;;12.20;43.00;;;;;;4899377;29;20810;-65
2021/03/22 12:53:09;;;;;;;3.88;1.00;;;12.20;42.70;;;;;;4900432;29;20043;-60
2021/03/22 12:55:35;;;;;;;4.00;1.23;;;12.30;41.90;;;;;;4910862;29;20083;-60
2021/03/22 12:58:05;;;;;;;2.85;1.20;;;12.40;41.60;;;;;;4909105;29;20035;-64
2021/03/22 13:00:32;;;;;;;4.57;1.33;;;12.50;41.50;;;;;;4914509;29;20035;-64
2021/03/22 13:02:57;;;;;;;6.25;1.17;;;12.60;40.60;;;;;;4924939;29;20488;-65
2021/03/22 13:05:30;;;;;;;3.08;1.10;;;12.60;36.80;;;;;;4915416;29;20132;-65
2021/03/22 13:07:56;;;;;;;2.13;0.80;;;12.60;37.30;;;;;;4909687;29;20038;-65
2021/03/22 13:10:31;;;;;;;4.90;1.08;;;12.60;38.40;;;;;;4915557;29;20047;-65
2021/03/22 13:12:57;;;;;;;5.85;1.20;;;12.50;38.80;;;;;;4907450;29;20039;-65
2021/03/22 13:15:25;;;;;;;2.78;1.00;;;12.50;39.30;;;;;;4912244;29;20048;-65
2021/03/22 13:17:51;;;;;;;2.67;0.93;;;12.50;40.30;;;;;;4911908;29;20043;-65
2021/03/22 13:20:17;;;;;;;4.05;1.70;;;12.50;38.60;;;;;;4913888;29;20881;-65